Terminal Aerodrome Forecast
Issued by NWS

Home | Current Version | Previous Version | Text Only | Print | Product List | Glossary On
Versions: 1 2 3 4 5 6 7 8 9 10 11 12
501
FTUS45 KRIW 312324
TAFRKS
TAF
KRKS 312324Z 0100/0124 35006KT P6SM SCT060
     FM010200 04010KT P6SM FEW060
     FM010600 07008KT P6SM SKC
     FM011800 27009KT P6SM SKC=

USA.gov is the U.S. government's official web portal to all federal, state and local government web resources and services.